createdAt,value
2018-11-07T00:01:19.636Z,13.30
2018-11-07T00:03:48.116Z,13.30
2018-11-07T00:06:16.596Z,13.40
2018-11-07T00:08:45.062Z,13.40
2018-11-07T00:11:13.461Z,13.30
2018-11-07T00:13:41.945Z,13.30
2018-11-07T00:16:10.453Z,13.40
2018-11-07T00:18:38.899Z,13.20
2018-11-07T00:21:07.350Z,13.20
2018-11-07T00:23:35.821Z,13.30
2018-11-07T00:26:04.290Z,13.30
2018-11-07T00:28:32.743Z,13.30
2018-11-07T00:31:01.199Z,13.40
2018-11-07T00:33:29.678Z,13.30
2018-11-07T00:35:59.795Z,13.20
2018-11-07T00:38:28.280Z,13.30
2018-11-07T00:40:56.768Z,13.20
2018-11-07T00:43:25.220Z,13.30
2018-11-07T00:45:53.649Z,13.40
2018-11-07T00:48:22.108Z,13.20
2018-11-07T00:50:50.544Z,13.10
2018-11-07T00:53:19.010Z,13.00
2018-11-07T00:55:47.457Z,13.00
2018-11-07T00:58:16.034Z,13.00
2018-11-07T01:00:44.450Z,13.10
2018-11-07T01:03:12.900Z,13.00
2018-11-07T01:05:41.443Z,13.10
2018-11-07T01:08:09.861Z,13.10
2018-11-07T01:10:39.489Z,13.20
2018-11-07T01:13:07.945Z,13.00
2018-11-07T01:15:36.366Z,13.00
2018-11-07T01:18:05.465Z,12.80
2018-11-07T01:20:33.952Z,13.00
2018-11-07T01:23:02.435Z,13.10
2018-11-07T01:25:30.916Z,13.00
2018-11-07T01:27:59.381Z,12.90
2018-11-07T01:30:27.809Z,12.90
2018-11-07T01:32:56.231Z,13.00
2018-11-07T01:35:24.684Z,12.90
2018-11-07T01:37:53.129Z,12.70
2018-11-07T01:40:21.624Z,12.70
2018-11-07T01:42:50.106Z,12.60
2018-11-07T01:45:18.642Z,12.50
2018-11-07T01:47:47.090Z,12.60
2018-11-07T01:50:15.607Z,12.60
2018-11-07T01:52:44.052Z,12.60
2018-11-07T01:55:12.533Z,12.50
2018-11-07T01:57:41.001Z,12.40
2018-11-07T02:00:12.025Z,12.40
2018-11-07T02:02:41.497Z,12.30
2018-11-07T02:05:09.965Z,12.40
2018-11-07T02:07:38.376Z,12.40
2018-11-07T02:10:07.743Z,12.40
2018-11-07T02:12:36.233Z,12.30
2018-11-07T02:15:04.905Z,12.40
2018-11-07T02:17:33.323Z,12.20
2018-11-07T02:20:01.831Z,12.20
2018-11-07T02:22:30.284Z,12.40
2018-11-07T02:24:58.737Z,12.40
2018-11-07T02:27:27.164Z,12.40
2018-11-07T02:29:55.598Z,12.50
2018-11-07T02:32:24.061Z,12.50
2018-11-07T02:34:53.490Z,12.50
2018-11-07T02:37:23.280Z,12.50
2018-11-07T02:39:51.748Z,12.50
2018-11-07T02:42:20.201Z,12.40
2018-11-07T02:44:48.654Z,12.30
2018-11-07T02:47:17.083Z,12.20
2018-11-07T02:49:45.505Z,12.20
2018-11-07T02:52:13.956Z,12.30
2018-11-07T02:54:42.424Z,12.30
2018-11-07T02:57:10.859Z,12.30
2018-11-07T02:59:39.333Z,12.40
2018-11-07T03:02:07.769Z,12.30
2018-11-07T03:04:36.208Z,12.30
2018-11-07T03:07:04.649Z,12.30
2018-11-07T03:09:33.109Z,12.30
2018-11-07T03:12:01.565Z,12.20
2018-11-07T03:14:29.999Z,12.20
2018-11-07T03:16:58.408Z,12.20
2018-11-07T03:19:26.842Z,12.30
2018-11-07T03:21:55.319Z,12.20
2018-11-07T03:24:23.787Z,12.10
2018-11-07T03:26:52.221Z,12.00
2018-11-07T03:29:20.685Z,12.00
2018-11-07T03:31:49.145Z,12.00
2018-11-07T03:34:17.588Z,12.00
2018-11-07T03:36:46.038Z,11.90
2018-11-07T03:39:15.485Z,11.90
2018-11-07T03:41:43.968Z,12.00
2018-11-07T03:44:12.490Z,11.80
2018-11-07T03:46:40.921Z,11.80
2018-11-07T03:49:09.378Z,11.70
2018-11-07T03:51:38.748Z,11.70
2018-11-07T03:54:07.235Z,11.70
2018-11-07T03:56:35.730Z,11.70
2018-11-07T03:59:04.216Z,11.70
2018-11-07T04:01:32.676Z,11.60
2018-11-07T04:04:01.184Z,11.60
2018-11-07T04:06:29.682Z,11.60
2018-11-07T04:08:58.201Z,11.60
2018-11-07T04:11:26.713Z,11.40
2018-11-07T04:13:55.170Z,11.30
2018-11-07T04:16:23.592Z,11.30
2018-11-07T04:18:52.045Z,11.30
2018-11-07T04:21:20.485Z,11.30
2018-11-07T04:24:07.444Z,11.10
2018-11-07T04:26:37.181Z,11.20
2018-11-07T04:29:05.665Z,11.30
2018-11-07T04:31:34.158Z,11.20
2018-11-07T04:34:02.622Z,11.30
2018-11-07T04:36:31.070Z,11.30
2018-11-07T04:38:59.612Z,11.20
2018-11-07T04:41:28.023Z,11.20
2018-11-07T04:43:56.445Z,11.20
2018-11-07T04:46:24.863Z,11.20
2018-11-07T04:48:53.310Z,11.20
2018-11-07T04:51:21.784Z,11.20
2018-11-07T04:53:51.823Z,11.20
2018-11-07T04:56:20.271Z,11.20
2018-11-07T04:58:48.818Z,11.30
2018-11-07T05:01:17.312Z,11.30
2018-11-07T05:03:45.768Z,11.20
2018-11-07T05:06:14.303Z,11.20
2018-11-07T05:08:42.842Z,11.20
2018-11-07T05:11:11.220Z,11.20
2018-11-07T05:13:39.685Z,11.10
2018-11-07T05:16:08.100Z,11.00
2018-11-07T05:18:36.539Z,10.80
2018-11-07T05:21:05.023Z,10.80
2018-11-07T05:23:33.453Z,10.80
2018-11-07T05:26:01.934Z,10.90
2018-11-07T05:28:30.405Z,10.90
2018-11-07T05:30:58.845Z,10.90
2018-11-07T05:33:27.297Z,10.70
2018-11-07T05:35:55.813Z,10.80
2018-11-07T05:38:24.340Z,10.80
2018-11-07T05:40:52.866Z,10.90
2018-11-07T05:43:22.034Z,11.00
2018-11-07T05:45:50.493Z,10.90
2018-11-07T05:48:18.949Z,10.90
2018-11-07T05:50:47.397Z,10.90
2018-11-07T05:53:15.839Z,10.90
2018-11-07T05:55:44.621Z,11.00
2018-11-07T05:58:13.089Z,11.00
2018-11-07T06:00:41.590Z,11.10
2018-11-07T06:03:10.020Z,11.10
2018-11-07T06:05:38.464Z,11.00
2018-11-07T06:08:06.947Z,10.90
2018-11-07T06:10:35.389Z,11.00
2018-11-07T06:13:03.881Z,10.90
2018-11-07T06:17:01.774Z,10.90
2018-11-07T06:19:30.233Z,11.00
2018-11-07T06:21:58.769Z,11.00
2018-11-07T06:24:27.266Z,10.90
2018-11-07T06:26:55.705Z,10.90
2018-11-07T06:29:24.155Z,10.90
2018-11-07T06:31:52.572Z,10.90
2018-11-07T06:34:20.998Z,10.80
2018-11-07T06:36:49.440Z,10.90
2018-11-07T06:39:17.897Z,10.80
2018-11-07T06:41:46.326Z,10.80
2018-11-07T06:44:14.973Z,10.70
2018-11-07T06:46:43.407Z,10.70
2018-11-07T06:49:11.913Z,10.60
2018-11-07T06:51:40.350Z,10.70
2018-11-07T06:54:08.830Z,10.60
2018-11-07T06:56:37.312Z,10.60
2018-11-07T06:59:05.867Z,10.60
2018-11-07T07:01:34.323Z,10.70
2018-11-07T07:04:02.827Z,10.50
2018-11-07T07:06:31.281Z,10.40
2018-11-07T07:08:59.748Z,10.50
2018-11-07T07:11:28.217Z,10.40
2018-11-07T07:13:56.756Z,10.50
2018-11-07T07:16:26.024Z,10.60
2018-11-07T07:18:54.543Z,10.60
2018-11-07T07:21:23.006Z,10.60
2018-11-07T07:23:51.451Z,10.60
2018-11-07T07:26:19.937Z,10.70
2018-11-07T07:28:48.410Z,10.60
2018-11-07T07:31:16.907Z,10.70
2018-11-07T07:33:45.354Z,10.70
2018-11-07T07:36:13.966Z,10.70
2018-11-07T07:38:42.522Z,10.80
2018-11-07T07:41:10.946Z,10.70
2018-11-07T07:43:39.369Z,10.70
2018-11-07T07:46:07.877Z,10.80
2018-11-07T07:48:36.336Z,11.00
2018-11-07T07:51:05.209Z,10.90
2018-11-07T07:53:33.717Z,11.00
2018-11-07T07:56:02.170Z,11.10
2018-11-07T07:58:30.632Z,11.20
2018-11-07T08:00:59.157Z,11.30
2018-11-07T08:03:27.637Z,11.40
2018-11-07T08:05:56.125Z,11.30
2018-11-07T08:08:24.587Z,11.20
2018-11-07T08:10:53.029Z,11.10
2018-11-07T08:13:21.515Z,11.10
2018-11-07T08:15:49.952Z,11.00
2018-11-07T08:18:18.466Z,11.10
2018-11-07T08:20:46.945Z,11.20
2018-11-07T08:23:15.353Z,11.20
2018-11-07T08:25:43.805Z,11.20
2018-11-07T08:28:12.269Z,11.20
2018-11-07T08:30:40.804Z,11.20
2018-11-07T08:33:09.408Z,11.30
2018-11-07T08:35:37.892Z,11.50
2018-11-07T08:38:06.355Z,11.40
2018-11-07T08:40:35.758Z,11.50
2018-11-07T08:43:04.286Z,11.60
2018-11-07T08:45:32.766Z,11.60
2018-11-07T08:48:01.262Z,11.50
2018-11-07T08:50:29.663Z,11.70
2018-11-07T08:52:58.173Z,11.80
2018-11-07T08:55:27.537Z,12.20
2018-11-07T08:57:56.039Z,12.60
2018-11-07T09:00:24.818Z,13.00
2018-11-07T09:02:53.326Z,13.80
2018-11-07T09:05:22.680Z,14.50
2018-11-07T09:07:51.173Z,14.80
2018-11-07T09:10:21.762Z,15.10
2018-11-07T09:12:50.247Z,15.10
2018-11-07T09:15:19.903Z,15.40
2018-11-07T09:17:48.335Z,15.40
2018-11-07T09:20:18.757Z,15.30
2018-11-07T09:22:47.778Z,15.60
2018-11-07T09:25:17.011Z,15.00
2018-11-07T09:27:46.129Z,15.20
2018-11-07T09:30:18.121Z,15.00
2018-11-07T09:32:46.630Z,14.90
2018-11-07T09:35:15.236Z,15.30
2018-11-07T09:37:43.814Z,15.50
2018-11-07T09:40:14.001Z,15.20
2018-11-07T09:42:42.959Z,15.10
2018-11-07T09:45:12.888Z,15.20
2018-11-07T09:47:41.993Z,15.30
2018-11-07T09:50:11.197Z,15.10
2018-11-07T09:52:40.085Z,15.10
2018-11-07T09:55:10.106Z,15.00
2018-11-07T09:57:39.017Z,14.80
2018-11-07T10:00:09.581Z,14.80
2018-11-07T10:02:38.659Z,14.60
2018-11-07T10:05:08.549Z,14.60
2018-11-07T10:07:38.014Z,14.70
2018-11-07T10:10:11.875Z,15.20
2018-11-07T10:12:41.188Z,15.10
2018-11-07T10:15:11.737Z,15.20
2018-11-07T10:17:40.889Z,15.20
2018-11-07T10:20:12.445Z,15.10
2018-11-07T10:22:41.674Z,15.10
2018-11-07T10:25:11.180Z,15.30
2018-11-07T10:27:39.982Z,15.10
2018-11-07T10:30:10.231Z,15.10
2018-11-07T10:32:38.662Z,15.30
2018-11-07T10:35:07.906Z,15.10
2018-11-07T10:37:36.499Z,15.10
2018-11-07T10:40:08.049Z,15.30
2018-11-07T10:42:36.530Z,15.20
2018-11-07T10:45:05.261Z,15.10
2018-11-07T10:47:33.710Z,15.00
2018-11-07T10:50:02.185Z,14.60
2018-11-07T10:52:30.665Z,14.60
2018-11-07T10:54:59.147Z,14.70
2018-11-07T10:57:27.597Z,14.80
2018-11-07T10:59:56.412Z,14.50
2018-11-07T11:02:30.119Z,14.50
2018-11-07T11:04:59.295Z,14.50
2018-11-07T11:14:15.147Z,14.40
2018-11-07T11:16:43.670Z,14.30
2018-11-07T11:19:12.054Z,14.40
2018-11-07T11:21:40.539Z,14.30
2018-11-07T11:24:09.316Z,14.30
2018-11-07T11:26:37.773Z,14.30
2018-11-07T11:29:06.509Z,14.20
2018-11-07T11:31:34.975Z,14.20
2018-11-07T11:34:03.607Z,14.30
2018-11-07T11:36:31.942Z,14.20
2018-11-07T11:39:00.432Z,14.20
2018-11-07T11:41:28.866Z,14.20
2018-11-07T11:43:57.411Z,14.40
2018-11-07T11:46:25.849Z,14.30
2018-11-07T11:48:54.342Z,14.30
2018-11-07T11:51:22.762Z,14.20
2018-11-07T11:53:51.296Z,14.20
2018-11-07T11:56:21.469Z,14.30
2018-11-07T11:58:50.871Z,14.30
2018-11-07T12:01:19.391Z,14.40
2018-11-07T12:03:47.913Z,14.40
2018-11-07T12:06:16.523Z,14.40
2018-11-07T12:08:45.513Z,14.40
2018-11-07T12:11:13.999Z,14.50
2018-11-07T12:13:42.485Z,14.50
2018-11-07T12:16:10.976Z,14.50
2018-11-07T12:18:39.433Z,14.50
2018-11-07T12:21:08.050Z,14.70
2018-11-07T12:23:36.464Z,14.70
2018-11-07T12:26:04.991Z,14.80
2018-11-07T12:28:34.197Z,14.80
2018-11-07T12:31:03.225Z,14.70
2018-11-07T12:33:32.278Z,14.70
2018-11-07T12:36:00.866Z,14.70
2018-11-07T12:38:29.333Z,14.70
2018-11-07T12:40:58.592Z,14.70
2018-11-07T12:43:27.145Z,14.70
2018-11-07T12:45:55.596Z,14.70
2018-11-07T12:48:24.087Z,14.60
2018-11-07T12:50:52.571Z,14.60
2018-11-07T12:53:21.064Z,14.70
2018-11-07T12:55:49.877Z,14.70
2018-11-07T12:58:19.774Z,14.60
2018-11-07T13:00:48.154Z,14.60
2018-11-07T13:03:17.149Z,14.50
2018-11-07T13:05:45.680Z,14.60
2018-11-07T13:08:15.206Z,14.50
2018-11-07T13:10:43.740Z,14.50
2018-11-07T13:13:12.902Z,14.50
2018-11-07T13:17:11.315Z,14.50
2018-11-07T13:19:40.205Z,14.50
2018-11-07T13:23:37.996Z,14.40
2018-11-07T13:26:06.765Z,14.30
2018-11-07T13:28:36.013Z,14.30
2018-11-07T13:31:04.475Z,14.20
2018-11-07T13:33:32.974Z,14.20
2018-11-07T13:36:01.662Z,14.00
2018-11-07T13:38:30.291Z,14.00
2018-11-07T13:40:58.655Z,13.80
2018-11-07T13:43:27.248Z,13.70
2018-11-07T13:45:55.872Z,13.60
2018-11-07T13:48:24.394Z,13.50
2018-11-07T13:50:52.878Z,13.50
2018-11-07T13:53:22.793Z,13.60
2018-11-07T13:55:51.414Z,13.40
2018-11-07T13:58:20.259Z,13.30
2018-11-07T14:00:49.009Z,13.20
2018-11-07T14:03:17.520Z,13.10
2018-11-07T14:05:46.116Z,13.20
2018-11-07T14:08:14.517Z,13.20
2018-11-07T14:10:43.679Z,13.10
2018-11-07T14:13:12.218Z,13.10
2018-11-07T14:15:40.987Z,12.80
2018-11-07T14:18:09.559Z,12.80
2018-11-07T14:20:38.048Z,12.70
2018-11-07T14:23:06.584Z,12.70
2018-11-07T14:25:36.014Z,12.70
2018-11-07T14:28:04.827Z,12.70
2018-11-07T14:30:33.165Z,12.60
2018-11-07T14:33:02.238Z,12.70
2018-11-07T14:35:30.736Z,12.60
2018-11-07T14:37:59.334Z,12.50
2018-11-07T14:40:27.862Z,12.50
2018-11-07T14:42:57.393Z,12.50
2018-11-07T14:45:25.896Z,12.60
2018-11-07T14:47:54.554Z,12.50
2018-11-07T14:50:22.994Z,12.40
2018-11-07T14:52:51.498Z,12.40
2018-11-07T14:55:20.113Z,12.30
2018-11-07T14:57:48.588Z,12.30
2018-11-07T15:00:17.637Z,12.20
2018-11-07T15:02:46.736Z,12.20
2018-11-07T15:05:15.992Z,12.20
2018-11-07T15:07:45.010Z,12.30
2018-11-07T15:10:14.665Z,12.10
2018-11-07T15:12:43.172Z,12.10
2018-11-07T15:15:14.842Z,12.10
2018-11-07T15:17:43.369Z,12.00
2018-11-07T15:20:13.656Z,12.00
2018-11-07T15:22:42.187Z,11.90
2018-11-07T15:25:11.883Z,12.00
2018-11-07T15:27:41.506Z,12.00
2018-11-07T15:30:11.042Z,12.00
2018-11-07T15:32:40.130Z,12.00
2018-11-07T15:35:10.144Z,12.10
2018-11-07T15:37:39.215Z,12.10
2018-11-07T15:40:09.931Z,12.00
2018-11-07T15:42:39.624Z,12.10
2018-11-07T15:45:10.030Z,12.20
2018-11-07T15:47:38.746Z,12.20
2018-11-07T15:50:12.572Z,12.20
2018-11-07T15:52:41.137Z,12.10
2018-11-07T15:55:09.632Z,12.10
2018-11-07T15:57:39.057Z,12.20
2018-11-07T16:00:10.674Z,12.10
2018-11-07T16:02:39.521Z,12.10
2018-11-07T16:05:09.673Z,12.10
2018-11-07T16:07:38.212Z,12.10
2018-11-07T16:10:07.994Z,12.10
2018-11-07T16:12:36.474Z,12.10
2018-11-07T16:15:05.944Z,12.00
2018-11-07T16:17:34.402Z,12.00
2018-11-07T16:20:03.550Z,12.00
2018-11-07T16:22:34.179Z,12.00
2018-11-07T16:25:02.770Z,12.00
2018-11-07T16:27:31.216Z,12.00
2018-11-07T16:29:59.718Z,12.00
2018-11-07T16:32:28.165Z,12.00
2018-11-07T16:34:56.949Z,12.00
2018-11-07T16:37:25.587Z,12.10
2018-11-07T16:39:54.073Z,12.00
2018-11-07T16:42:22.502Z,12.00
2018-11-07T16:44:51.008Z,12.10
2018-11-07T16:47:19.466Z,12.10
2018-11-07T16:49:47.966Z,12.10
2018-11-07T16:52:17.171Z,12.10
2018-11-07T16:54:45.660Z,12.10
2018-11-07T16:57:14.190Z,12.20
2018-11-07T16:59:43.798Z,12.20
2018-11-07T17:02:12.587Z,12.10
2018-11-07T17:04:42.116Z,12.10
2018-11-07T17:07:11.943Z,12.20
2018-11-07T17:09:40.474Z,12.20
2018-11-07T17:12:09.180Z,12.20
2018-11-07T17:14:37.899Z,12.20
2018-11-07T17:17:06.568Z,12.20
2018-11-07T17:19:36.277Z,12.10
2018-11-07T17:22:04.805Z,12.20
2018-11-07T17:24:33.358Z,12.20
2018-11-07T17:27:01.782Z,12.20
2018-11-07T17:29:30.284Z,12.20
2018-11-07T17:31:58.915Z,12.10
2018-11-07T17:34:27.277Z,12.20
2018-11-07T17:36:55.769Z,12.20
2018-11-07T17:39:24.221Z,12.20
2018-11-07T17:41:52.775Z,12.20
2018-11-07T17:44:21.281Z,12.10
2018-11-07T17:46:51.430Z,12.20
2018-11-07T17:49:19.915Z,12.20
2018-11-07T17:51:48.444Z,12.20
2018-11-07T17:54:16.941Z,12.20
2018-11-07T17:56:45.510Z,12.20
2018-11-07T17:59:13.952Z,12.20
2018-11-07T18:01:42.459Z,12.20
2018-11-07T18:04:11.343Z,12.20
2018-11-07T18:06:40.981Z,12.20
2018-11-07T18:09:10.112Z,12.30
2018-11-07T18:11:39.850Z,12.20
2018-11-07T18:14:08.750Z,12.20
2018-11-07T18:16:37.258Z,12.30
2018-11-07T18:19:06.006Z,12.30
2018-11-07T18:21:34.463Z,12.30
2018-11-07T18:24:03.019Z,12.30
2018-11-07T18:26:31.537Z,12.30
2018-11-07T18:29:00.888Z,12.30
2018-11-07T18:31:29.404Z,12.30
2018-11-07T18:33:57.951Z,12.20
2018-11-07T18:36:26.521Z,12.20
2018-11-07T18:38:55.164Z,12.30
2018-11-07T18:41:23.750Z,12.20
2018-11-07T18:43:52.281Z,12.20
2018-11-07T18:46:21.598Z,12.20
2018-11-07T18:48:50.127Z,12.20
2018-11-07T18:51:18.661Z,12.20
2018-11-07T18:53:47.188Z,12.20
2018-11-07T18:56:15.688Z,12.20
2018-11-07T18:58:44.228Z,12.20
2018-11-07T19:01:12.684Z,12.20
2018-11-07T19:03:41.186Z,12.10
2018-11-07T19:06:09.717Z,12.20
2018-11-07T19:08:38.215Z,12.20
2018-11-07T19:11:06.733Z,12.20
2018-11-07T19:13:35.294Z,12.10
2018-11-07T19:16:04.760Z,12.10
2018-11-07T19:18:33.241Z,12.10
2018-11-07T19:21:02.841Z,12.10
2018-11-07T19:23:31.316Z,12.10
2018-11-07T19:25:59.826Z,12.10
2018-11-07T19:28:28.385Z,12.10
2018-11-07T19:30:56.875Z,12.20
2018-11-07T19:33:25.416Z,12.10
2018-11-07T19:35:53.937Z,12.00
2018-11-07T19:38:22.407Z,12.00
2018-11-07T19:40:51.024Z,12.00
2018-11-07T19:43:19.473Z,12.00
2018-11-07T19:45:47.949Z,12.10
2018-11-07T19:48:16.502Z,12.00
2018-11-07T19:50:45.060Z,12.10
2018-11-07T19:53:13.566Z,12.00
2018-11-07T19:55:42.068Z,11.90
2018-11-07T19:58:10.566Z,11.90
2018-11-07T20:00:39.098Z,12.00
2018-11-07T20:03:07.541Z,11.90
2018-11-07T20:05:36.031Z,12.00
2018-11-07T20:08:04.505Z,12.00
2018-11-07T20:10:32.969Z,12.00
2018-11-07T20:13:01.489Z,11.90
2018-11-07T20:15:29.957Z,11.90
2018-11-07T20:17:58.446Z,11.90
2018-11-07T20:20:26.956Z,11.90
2018-11-07T20:22:55.528Z,11.90
2018-11-07T20:25:23.913Z,11.90
2018-11-07T20:27:52.437Z,11.80
2018-11-07T20:30:21.560Z,11.90
2018-11-07T20:32:50.032Z,11.80
2018-11-07T20:35:19.702Z,11.80
2018-11-07T20:37:48.205Z,11.70
2018-11-07T20:40:17.953Z,11.80
2018-11-07T20:42:46.454Z,11.80
2018-11-07T20:45:15.645Z,11.70
2018-11-07T20:47:44.174Z,11.70
2018-11-07T20:50:14.218Z,11.70
2018-11-07T20:52:44.162Z,11.80
2018-11-07T20:55:13.447Z,11.80
2018-11-07T20:57:41.926Z,11.80
2018-11-07T21:00:13.618Z,11.80
2018-11-07T21:02:42.821Z,11.70
2018-11-07T21:05:11.696Z,11.70
2018-11-07T21:07:40.492Z,11.70
2018-11-07T21:10:12.029Z,11.70
2018-11-07T21:12:40.952Z,11.70
2018-11-07T21:15:10.615Z,11.70
2018-11-07T21:17:40.265Z,11.70
2018-11-07T21:20:09.224Z,11.70
2018-11-07T21:22:38.196Z,11.80
2018-11-07T21:25:06.841Z,11.70
2018-11-07T21:27:35.330Z,11.70
2018-11-07T21:30:04.108Z,11.70
2018-11-07T21:32:32.646Z,11.70
2018-11-07T21:35:01.202Z,11.60
2018-11-07T21:37:29.785Z,11.60
2018-11-07T21:39:58.238Z,11.70
2018-11-07T21:42:26.678Z,11.60
2018-11-07T21:44:55.159Z,11.70
2018-11-07T21:47:23.666Z,11.60
2018-11-07T21:49:52.184Z,11.60
2018-11-07T21:52:21.491Z,11.70
2018-11-07T21:54:50.166Z,11.60
2018-11-07T21:57:18.589Z,11.70
2018-11-07T21:59:47.867Z,11.60
2018-11-07T22:02:16.354Z,11.70
2018-11-07T22:04:44.872Z,11.70
2018-11-07T22:07:13.353Z,11.70
2018-11-07T22:09:41.878Z,11.70
2018-11-07T22:12:10.385Z,11.70
2018-11-07T22:14:38.836Z,11.60
2018-11-07T22:17:07.319Z,11.70
2018-11-07T22:19:35.781Z,11.70
2018-11-07T22:22:04.321Z,11.60
2018-11-07T22:24:32.775Z,11.70
2018-11-07T22:27:01.243Z,11.70
2018-11-07T22:29:29.682Z,11.70
2018-11-07T22:31:58.183Z,11.60
2018-11-07T22:34:26.722Z,11.50
2018-11-07T22:36:55.271Z,11.50
2018-11-07T22:39:23.724Z,11.40
2018-11-07T22:41:52.223Z,11.30
2018-11-07T22:44:20.717Z,11.20
2018-11-07T22:46:49.206Z,11.40
2018-11-07T22:49:17.684Z,11.30
2018-11-07T22:51:46.185Z,11.30
2018-11-07T22:54:14.762Z,11.30
2018-11-07T22:56:43.457Z,11.30
2018-11-07T22:59:12.558Z,11.10
2018-11-07T23:01:41.854Z,11.20
2018-11-07T23:04:10.659Z,11.20
2018-11-07T23:06:39.864Z,11.20
2018-11-07T23:09:11.713Z,11.10
2018-11-07T23:11:41.223Z,11.10
2018-11-07T23:14:12.030Z,11.10
2018-11-07T23:16:40.871Z,11.10
2018-11-07T23:19:09.675Z,11.20
2018-11-07T23:21:38.281Z,11.10
2018-11-07T23:24:07.332Z,11.10
2018-11-07T23:26:36.699Z,11.00
2018-11-07T23:29:05.497Z,11.20
2018-11-07T23:31:34.578Z,11.10
2018-11-07T23:34:03.122Z,11.10
2018-11-07T23:36:31.686Z,11.10
2018-11-07T23:39:00.442Z,11.10
2018-11-07T23:41:28.941Z,11.10
2018-11-07T23:43:58.242Z,11.10
2018-11-07T23:46:26.659Z,11.00
2018-11-07T23:48:55.164Z,11.00
2018-11-07T23:51:23.616Z,11.00
2018-11-07T23:53:52.102Z,10.90
2018-11-07T23:56:20.635Z,10.90
2018-11-07T23:58:49.297Z,11.00
